Time;durP1;ratioP1;P1;durP2;ratioP2;P2;SDS_P1;SDS_P2;PMS_P1;PMS_P2;Temp;Humidity;BMP_temperature;BMP_pressure;BME280_temperature;BME280_humidity;BME280_pressure;Samples;Min_cycle;Max_cycle;Signal;HPM_P1;HPM_P2
2021/11/16 00:01:58;;;;;;;30.30;18.77;;;;;;;6.14;77.50;102848.09;5028309;28;20289;-72
2021/11/16 00:04:23;;;;;;;28.10;18.67;;;;;;;6.18;77.87;102842.41;5029801;28;20202;-73
2021/11/16 00:06:52;;;;;;;28.50;18.07;;;;;;;6.18;77.80;102842.41;5029419;28;20201;-72
2021/11/16 00:09:17;;;;;;;28.47;17.60;;;;;;;6.19;78.19;102846.75;5029704;28;20258;-72
2021/11/16 00:11:43;;;;;;;29.23;18.37;;;;;;;6.18;77.88;102851.72;5029417;28;20384;-72
2021/11/16 00:14:09;;;;;;;28.67;18.67;;;;;;;6.18;77.86;102852.56;5029693;28;20215;-72
2021/11/16 00:16:37;;;;;;;29.87;19.20;;;;;;;6.19;78.30;102843.31;5028077;28;20887;-72
2021/11/16 00:19:03;;;;;;;30.80;19.17;;;;;;;6.18;77.02;102846.63;5029544;28;20214;-73
2021/11/16 00:21:29;;;;;;;26.83;17.40;;;;;;;6.12;77.98;102841.13;5029404;28;20551;-71
2021/11/16 00:24:01;;;;;;;28.37;18.40;;;;;;;6.08;77.35;102829.84;5029304;28;20281;-72
2021/11/16 00:26:27;;;;;;;28.97;18.03;;;;;;;6.13;78.14;102836.13;5027095;28;20286;-72
2021/11/16 00:28:53;;;;;;;30.13;17.67;;;;;;;6.11;77.57;102831.72;5012539;28;20640;-72
2021/11/16 00:31:21;;;;;;;27.40;17.97;;;;;;;6.13;77.22;102825.94;5009793;28;20815;-72
2021/11/16 00:33:48;;;;;;;28.80;18.53;;;;;;;6.11;78.05;102813.91;5008480;28;20207;-72
2021/11/16 00:36:13;;;;;;;27.17;18.70;;;;;;;6.15;77.81;102814.25;5008279;28;20306;-71
2021/11/16 00:38:40;;;;;;;29.43;18.33;;;;;;;6.16;77.38;102810.00;5009068;28;20266;-72
2021/11/16 00:41:06;;;;;;;31.57;19.80;;;;;;;6.13;77.91;102812.38;5009461;28;20215;-72
2021/11/16 00:43:31;;;;;;;28.73;18.97;;;;;;;6.10;78.40;102804.53;5009352;28;20418;-73
2021/11/16 00:45:57;;;;;;;27.23;18.03;;;;;;;6.09;77.79;102803.66;5007930;28;20198;-72
2021/11/16 00:48:23;;;;;;;27.27;18.00;;;;;;;6.05;78.28;102808.41;5009421;28;20715;-72
2021/11/16 00:50:52;;;;;;;29.33;19.70;;;;;;;6.05;77.58;102798.25;4991647;28;20191;-72
2021/11/16 00:53:19;;;;;;;28.23;17.70;;;;;;;6.09;78.12;102796.03;5008949;28;20265;-72
2021/11/16 00:55:45;;;;;;;32.63;18.87;;;;;;;6.05;77.48;102803.31;5009053;28;20261;-72
2021/11/16 00:58:10;;;;;;;30.77;20.20;;;;;;;6.02;77.32;102788.75;5009387;28;20601;-73
2021/11/16 01:00:36;;;;;;;29.67;18.83;;;;;;;6.04;77.49;102797.34;5009441;28;20281;-72
2021/11/16 01:03:01;;;;;;;30.13;19.87;;;;;;;6.07;77.50;102794.13;5009279;28;20237;-72
2021/11/16 01:05:27;;;;;;;29.80;18.70;;;;;;;6.05;77.42;102794.06;5009139;28;20175;-72
2021/11/16 01:07:52;;;;;;;30.23;19.37;;;;;;;6.02;77.23;102792.94;5009115;28;20229;-72
2021/11/16 01:10:21;;;;;;;27.27;18.47;;;;;;;6.07;77.26;102787.41;5007783;28;20719;-72
2021/11/16 01:12:46;;;;;;;27.90;17.20;;;;;;;6.05;76.74;102795.69;5009042;28;20574;-72
2021/11/16 01:15:14;;;;;;;25.43;16.83;;;;;;;6.06;76.18;102790.72;5008936;28;20215;-72
2021/11/16 01:17:40;;;;;;;28.13;17.50;;;;;;;6.06;76.62;102783.09;5009046;28;20191;-72
2021/11/16 01:20:08;;;;;;;26.60;17.00;;;;;;;6.05;76.39;102776.25;5009080;28;20555;-72
2021/11/16 01:22:34;;;;;;;24.80;17.17;;;;;;;6.04;77.49;102771.06;5009094;28;20769;-72
2021/11/16 01:24:59;;;;;;;28.20;18.60;;;;;;;6.03;77.20;102769.31;5009054;28;20187;-72
2021/11/16 01:27:26;;;;;;;30.27;18.97;;;;;;;6.02;76.96;102765.88;5018087;28;20277;-72
2021/11/16 01:29:52;;;;;;;26.47;18.30;;;;;;;6.00;77.91;102759.81;5010298;28;20183;-72
2021/11/16 01:32:28;;;;;;;30.37;18.30;;;;;;;5.98;77.36;102757.94;5009015;28;20218;-72
2021/11/16 01:34:54;;;;;;;31.87;19.53;;;;;;;5.99;77.48;102759.69;5008981;28;20257;-71
2021/11/16 01:37:21;;;;;;;28.30;18.13;;;;;;;5.97;77.36;102757.03;5008754;28;20191;-72
2021/11/16 01:39:46;;;;;;;31.37;19.40;;;;;;;6.00;77.66;102761.44;5008986;28;20222;-72
2021/11/16 01:42:12;;;;;;;29.83;19.80;;;;;;;5.99;78.06;102755.47;5007652;28;20238;-71
2021/11/16 01:44:38;;;;;;;31.33;20.07;;;;;;;5.97;78.05;102748.53;5009125;28;20183;-72
2021/11/16 01:47:03;;;;;;;34.17;20.53;;;;;;;5.99;77.57;102755.47;5008919;28;20188;-72
2021/11/16 01:49:29;;;;;;;32.17;20.07;;;;;;;5.99;78.22;102757.16;5010956;28;20191;-72
2021/11/16 01:51:54;;;;;;;31.87;20.20;;;;;;;5.97;78.31;102751.97;5012657;28;20258;-71
2021/11/16 01:54:19;;;;;;;32.90;20.07;;;;;;;6.03;77.96;102761.69;5012066;28;20308;-72
2021/11/16 01:56:46;;;;;;;35.00;20.63;;;;;;;5.97;77.72;102746.88;5012030;28;20735;-72
2021/11/16 01:59:14;;;;;;;31.97;21.27;;;;;;;5.99;78.05;102757.16;5012424;28;20187;-72
2021/11/16 02:01:40;;;;;;;35.23;21.27;;;;;;;5.97;78.37;102751.06;5011059;28;20191;-72
2021/11/16 02:04:09;;;;;;;34.50;22.23;;;;;;;5.98;78.12;102745.22;5012226;28;20257;-72
2021/11/16 02:06:37;;;;;;;32.10;20.43;;;;;;;6.01;78.63;102743.78;5010602;28;20214;-72
2021/11/16 02:09:07;;;;;;;35.63;21.63;;;;;;;5.99;78.30;102741.91;5012117;28;20955;-73
2021/11/16 02:11:33;;;;;;;34.07;20.63;;;;;;;5.98;79.30;102742.69;5010876;28;20985;-72
2021/11/16 02:13:59;;;;;;;36.17;22.07;;;;;;;6.01;78.82;102747.97;5012082;28;20254;-72
2021/11/16 02:16:25;;;;;;;31.50;20.03;;;;;;;5.96;77.84;102742.56;5011784;28;20373;-72
2021/11/16 02:18:50;;;;;;;34.43;20.90;;;;;;;5.97;77.87;102745.97;5010708;28;20195;-72
2021/11/16 02:21:16;;;;;;;26.87;17.10;;;;;;;5.95;76.85;102742.47;5011895;28;20179;-72
2021/11/16 02:23:43;;;;;;;27.80;17.50;;;;;;;5.96;76.07;102734.94;5011667;28;20206;-72
2021/11/16 02:26:10;;;;;;;30.17;17.83;;;;;;;5.97;76.70;102731.63;5017620;28;20225;-73
2021/11/16 02:28:36;;;;;;;29.23;18.63;;;;;;;5.99;77.07;102729.19;5014834;28;20194;-72
2021/11/16 02:31:02;;;;;;;32.00;20.03;;;;;;;5.95;77.83;102724.66;5010460;28;20183;-72
2021/11/16 02:33:28;;;;;;;37.00;21.77;;;;;;;5.92;77.69;102725.34;5011518;28;20596;-72
2021/11/16 02:35:53;;;;;;;32.07;20.63;;;;;;;5.90;78.09;102721.81;5011486;28;20285;-72
2021/11/16 02:38:19;;;;;;;35.10;21.40;;;;;;;5.90;78.41;102718.41;5011328;28;20207;-72
2021/11/16 02:40:45;;;;;;;36.57;21.60;;;;;;;5.90;77.59;102718.41;5011615;28;20195;-72
2021/11/16 02:43:11;;;;;;;33.03;21.10;;;;;;;5.90;78.13;102716.72;5011423;28;20241;-72
2021/11/16 02:45:37;;;;;;;35.40;21.03;;;;;;;5.89;77.74;102707.34;5011274;28;20627;-72
2021/11/16 02:48:11;;;;;;;34.77;21.30;;;;;;;5.87;77.62;102708.91;5011426;28;20321;-72
2021/11/16 02:50:43;;;;;;;32.20;20.43;;;;;;;5.87;78.30;102703.81;5011384;28;20657;-72
2021/11/16 02:53:09;;;;;;;33.57;20.37;;;;;;;5.88;78.07;102707.22;5011439;28;20930;-71
2021/11/16 02:55:34;;;;;;;32.87;20.43;;;;;;;5.90;77.68;102698.06;5014670;28;20301;-72
2021/11/16 02:58:00;;;;;;;31.50;19.93;;;;;;;5.89;77.71;102692.09;5011619;28;20241;-72
2021/11/16 03:00:25;;;;;;;30.87;19.40;;;;;;;5.90;77.41;102696.38;5009468;28;20196;-72
2021/11/16 03:02:51;;;;;;;29.50;19.33;;;;;;;5.91;77.31;102688.00;5011054;28;20277;-72
2021/11/16 03:05:17;;;;;;;32.03;19.50;;;;;;;5.88;78.02;102685.25;5011005;28;20707;-71
2021/11/16 03:07:48;;;;;;;30.47;18.93;;;;;;;5.89;76.80;102683.59;5010930;28;20187;-72
2021/11/16 03:10:16;;;;;;;31.03;18.23;;;;;;;5.94;77.10;102684.78;5010990;28;20199;-72
2021/11/16 03:12:42;;;;;;;32.17;18.33;;;;;;;5.90;76.74;102680.28;5010877;28;20215;-72
2021/11/16 03:15:09;;;;;;;30.20;18.03;;;;;;;5.90;77.37;102670.97;5010699;28;20199;-72
2021/11/16 03:17:34;;;;;;;29.83;18.40;;;;;;;5.94;76.77;102670.38;5010675;28;20540;-72
2021/11/16 03:20:00;;;;;;;27.77;18.97;;;;;;;5.89;77.06;102666.66;5025966;28;20195;-71
2021/11/16 03:22:36;;;;;;;30.13;18.63;;;;;;;5.89;77.19;102669.22;5009411;28;20290;-72
2021/11/16 03:25:02;;;;;;;31.17;19.07;;;;;;;5.93;77.14;102666.09;5017007;28;20186;-72
2021/11/16 03:27:34;;;;;;;31.57;19.90;;;;;;;5.89;77.43;102665.81;5030741;28;20269;-72
2021/11/16 03:30:00;;;;;;;30.10;18.90;;;;;;;5.89;77.41;102665.81;5028841;28;20190;-72
2021/11/16 03:32:36;;;;;;;31.70;19.53;;;;;;;5.90;77.71;102659.94;5029197;28;20233;-72
2021/11/16 03:35:04;;;;;;;35.07;20.17;;;;;;;5.89;78.23;102659.03;5030536;28;20267;-73
2021/11/16 03:37:39;;;;;;;31.13;18.73;;;;;;;5.90;77.17;102667.56;5030615;28;20321;-71
2021/11/16 03:40:05;;;;;;;31.60;19.53;;;;;;;5.94;77.45;102672.06;5030322;28;20190;-72
2021/11/16 03:42:31;;;;;;;32.53;20.33;;;;;;;5.92;77.61;102666.88;5030573;28;20214;-72
2021/11/16 03:44:57;;;;;;;31.77;19.63;;;;;;;5.93;77.89;102663.56;5030539;28;20183;-72
2021/11/16 03:47:23;;;;;;;33.00;19.63;;;;;;;5.97;77.70;102657.00;5029948;28;20197;-72
2021/11/16 03:49:48;;;;;;;34.87;20.20;;;;;;;5.94;78.14;102654.28;5030358;28;20186;-72
2021/11/16 03:52:17;;;;;;;33.80;20.53;;;;;;;5.94;77.82;102657.69;5028910;28;20308;-72
2021/11/16 03:54:43;;;;;;;31.40;19.17;;;;;;;5.92;77.47;102658.38;5028952;28;20205;-72
2021/11/16 03:57:08;;;;;;;30.13;19.13;;;;;;;5.98;77.91;102653.72;5030212;28;20659;-72
2021/11/16 03:59:35;;;;;;;32.50;19.87;;;;;;;5.97;77.29;102654.47;5030078;28;20188;-73
2021/11/16 04:02:01;;;;;;;30.80;19.33;;;;;;;5.96;77.68;102657.78;5030321;28;20197;-72
2021/11/16 04:04:26;;;;;;;30.97;19.93;;;;;;;5.95;77.08;102656.91;5030273;28;20277;-73
2021/11/16 04:06:52;;;;;;;29.67;18.67;;;;;;;5.96;77.18;102658.69;5030281;28;20182;-72
2021/11/16 04:09:17;;;;;;;28.87;19.00;;;;;;;5.97;76.86;102654.47;5030605;28;20636;-71
2021/11/16 04:11:42;;;;;;;31.97;19.60;;;;;;;5.97;77.47;102657.00;5030035;28;20253;-72
2021/11/16 04:14:08;;;;;;;29.70;19.53;;;;;;;5.98;77.30;102649.47;5028381;28;20206;-72
2021/11/16 04:16:34;;;;;;;32.23;19.53;;;;;;;5.98;77.62;102651.16;5028823;28;20296;-72
2021/11/16 04:18:59;;;;;;;34.47;19.73;;;;;;;5.99;76.70;102637.66;5030298;28;20281;-72
2021/11/16 04:21:25;;;;;;;31.57;19.50;;;;;;;5.97;76.76;102635.03;5029926;28;20220;-72
2021/11/16 04:23:50;;;;;;;33.77;20.27;;;;;;;5.97;77.25;102636.66;5029940;28;20567;-72
2021/11/16 04:26:16;;;;;;;31.50;20.43;;;;;;;5.97;77.82;102634.13;5029518;28;20316;-72
2021/11/16 04:28:41;;;;;;;33.30;19.90;;;;;;;5.96;77.75;102642.53;5029547;28;20183;-72
2021/11/16 04:31:07;;;;;;;31.73;19.33;;;;;;;5.95;77.13;102644.19;5029846;28;20273;-72
2021/11/16 04:33:32;;;;;;;30.77;19.07;;;;;;;5.95;77.70;102640.78;5029684;28;20278;-73
2021/11/16 04:35:57;;;;;;;32.57;20.93;;;;;;;5.95;77.19;102635.69;5029236;28;20221;-72
2021/11/16 04:38:23;;;;;;;31.63;20.10;;;;;;;5.95;77.12;102630.63;5029324;28;20182;-72
2021/11/16 04:40:52;;;;;;;34.73;20.93;;;;;;;5.94;77.84;102631.41;5029079;28;20651;-72
2021/11/16 04:43:21;;;;;;;34.80;21.63;;;;;;;5.96;77.89;102629.81;5027964;28;20217;-72
2021/11/16 04:45:51;;;;;;;32.90;20.03;;;;;;;5.94;77.64;102629.72;5029126;28;20648;-72
2021/11/16 04:48:33;;;;;;;33.63;21.30;;;;;;;5.94;77.13;102631.41;5028312;28;20190;-71
2021/11/16 04:53:49;;;;;;;34.27;20.73;;;;;;;5.90;76.77;102634.50;5029068;28;20245;-71
2021/11/16 05:04:29;;;;;;;38.17;22.47;;;;;;;5.97;76.94;102632.47;5006427;28;20232;-72
2021/11/16 05:06:56;;;;;;;34.83;22.17;;;;;;;5.98;77.34;102626.59;5024565;28;20198;-72
2021/11/16 05:09:22;;;;;;;34.77;22.23;;;;;;;5.96;76.96;102630.72;5029112;28;20186;-72
2021/11/16 05:11:47;;;;;;;36.10;22.87;;;;;;;5.97;77.41;102629.03;5029084;28;20201;-72
2021/11/16 05:14:13;;;;;;;35.03;22.37;;;;;;;5.91;77.16;102627.00;5027766;28;20206;-72
2021/11/16 05:16:38;;;;;;;38.40;23.17;;;;;;;5.92;77.24;102623.66;5028811;28;20233;-72
2021/11/16 05:19:03;;;;;;;35.30;22.40;;;;;;;5.91;77.11;102621.91;5029458;28;20194;-72
2021/11/16 05:21:29;;;;;;;36.37;22.17;;;;;;;5.93;76.80;102620.34;5029442;28;20194;-72
2021/11/16 05:23:57;;;;;;;36.50;22.07;;;;;;;5.92;77.21;102620.22;5030428;28;20571;-72
2021/11/16 05:26:24;;;;;;;39.30;23.40;;;;;;;5.93;77.66;102619.44;5032520;28;20190;-72
2021/11/16 05:28:50;;;;;;;38.63;24.87;;;;;;;5.91;77.54;102626.09;5033225;28;20189;-72
2021/11/16 05:31:17;;;;;;;38.13;23.50;;;;;;;5.87;77.89;102625.03;5031349;28;20817;-72
2021/11/16 05:33:44;;;;;;;38.67;23.63;;;;;;;5.89;77.91;102623.44;5032939;28;20273;-71
2021/11/16 05:36:10;;;;;;;40.23;24.67;;;;;;;5.90;77.92;102630.28;5031182;28;20324;-72
2021/11/16 05:38:38;;;;;;;41.40;25.17;;;;;;;5.89;77.31;102635.31;5033072;28;20269;-72
2021/11/16 05:41:04;;;;;;;45.27;28.83;;;;;;;5.89;77.50;102630.22;5032499;28;20185;-72
2021/11/16 05:43:30;;;;;;;42.83;29.13;;;;;;;5.87;77.52;102625.03;5030968;28;20210;-72
2021/11/16 05:45:58;;;;;;;40.17;26.20;;;;;;;5.88;77.35;102616.63;5032392;28;20647;-72
2021/11/16 05:48:24;;;;;;;41.57;26.27;;;;;;;5.87;77.78;102622.47;5032797;28;20205;-72
2021/11/16 05:50:51;;;;;;;38.20;24.27;;;;;;;5.86;77.62;102624.91;5032595;28;20720;-72
2021/11/16 05:53:18;;;;;;;41.23;25.10;;;;;;;5.83;78.03;102625.59;5031225;28;20240;-72
2021/11/16 05:55:45;;;;;;;42.43;25.27;;;;;;;5.85;77.17;102625.72;5032404;28;20211;-72
2021/11/16 05:58:19;;;;;;;42.33;24.70;;;;;;;5.84;77.36;102617.19;5031293;28;20189;-72
2021/11/16 06:00:45;;;;;;;42.47;24.57;;;;;;;5.88;77.78;102603.91;5031079;28;20186;-72
2021/11/16 06:03:11;;;;;;;42.30;24.07;;;;;;;5.86;77.46;102607.13;5032286;28;20359;-71
2021/11/16 06:05:37;;;;;;;45.37;26.30;;;;;;;5.86;77.66;102609.66;5032302;28;20687;-72
2021/11/16 06:08:03;;;;;;;43.57;24.27;;;;;;;5.84;77.36;102614.66;5032419;28;20222;-72
2021/11/16 06:10:28;;;;;;;41.50;24.17;;;;;;;5.84;77.40;102616.31;5031089;28;20218;-71
2021/11/16 06:12:54;;;;;;;44.07;26.53;;;;;;;5.83;77.77;102607.81;5032114;28;20242;-72
2021/11/16 06:15:19;;;;;;;37.67;23.87;;;;;;;5.81;77.91;102606.81;5030756;28;20607;-72
2021/11/16 06:17:45;;;;;;;43.20;24.93;;;;;;;5.84;77.40;102611.25;5031979;28;20178;-72
2021/11/16 06:20:13;;;;;;;43.97;26.80;;;;;;;5.85;78.04;102610.47;5032299;28;20244;-73
2021/11/16 06:22:38;;;;;;;43.53;26.00;;;;;;;5.85;77.90;102611.31;5032119;28;20706;-73
2021/11/16 06:25:04;;;;;;;48.07;27.27;;;;;;;5.83;78.20;102606.91;5032148;28;20190;-71
2021/11/16 06:27:29;;;;;;;48.37;27.93;;;;;;;5.84;78.44;102612.09;5030653;28;20190;-72
2021/11/16 06:29:55;;;;;;;45.70;28.07;;;;;;;5.81;78.90;102614.44;5032027;28;20189;-72
2021/11/16 06:32:20;;;;;;;47.53;28.40;;;;;;;5.77;78.88;102625.16;5031980;28;20297;-72
2021/11/16 06:34:45;;;;;;;45.00;25.73;;;;;;;5.79;78.81;102626.13;5031747;28;20189;-73
2021/11/16 06:37:11;;;;;;;42.90;25.77;;;;;;;5.78;78.66;102626.91;5029864;28;20217;-72
2021/11/16 06:39:36;;;;;;;44.43;26.00;;;;;;;5.80;78.34;102632.09;5030567;28;20198;-71
2021/11/16 06:42:02;;;;;;;41.47;25.63;;;;;;;5.77;78.54;102630.25;5031851;28;20186;-72
2021/11/16 06:44:27;;;;;;;41.77;26.10;;;;;;;5.76;78.28;102631.00;5031619;28;20202;-72
2021/11/16 06:46:54;;;;;;;43.03;25.30;;;;;;;5.77;78.76;102640.41;5046734;28;20178;-71
2021/11/16 06:49:21;;;;;;;42.77;26.07;;;;;;;5.80;78.79;102637.19;5031668;28;20198;-72
2021/11/16 06:51:49;;;;;;;41.97;25.93;;;;;;;5.80;78.67;102627.94;5031704;28;20191;-72
2021/11/16 06:54:23;;;;;;;45.17;26.73;;;;;;;5.80;79.53;102632.09;5031286;28;20198;-71
2021/11/16 06:56:50;;;;;;;46.33;27.70;;;;;;;5.80;79.06;102632.09;5031336;28;20233;-72
2021/11/16 06:59:18;;;;;;;46.50;26.97;;;;;;;5.79;79.41;102627.78;5031393;28;20326;-72
2021/11/16 07:01:44;;;;;;;44.47;26.37;;;;;;;5.82;79.24;102638.19;5031484;28;20186;-72
2021/11/16 07:04:10;;;;;;;41.57;26.30;;;;;;;5.83;79.45;102633.22;5031391;28;20291;-72
2021/11/16 07:06:43;;;;;;;45.27;27.97;;;;;;;5.83;80.21;102633.22;5031197;28;20186;-72
2021/11/16 07:09:11;;;;;;;44.97;27.10;;;;;;;5.84;79.27;102627.34;5029840;28;20214;-72
2021/11/16 07:11:50;;;;;;;49.27;27.87;;;;;;;5.82;79.89;102630.56;5029928;28;20198;-72
2021/11/16 07:14:18;;;;;;;47.37;27.73;;;;;;;5.87;79.39;102630.09;5031084;28;20210;-71
2021/11/16 07:16:55;;;;;;;45.37;27.00;;;;;;;5.87;79.56;102631.75;5030905;28;20198;-72
2021/11/16 07:19:49;;;;;;;47.30;27.33;;;;;;;5.86;80.17;102633.44;5031036;28;20190;-72
2021/11/16 07:22:33;;;;;;;50.00;27.40;;;;;;;5.85;79.44;102635.88;5029785;28;20210;-72
2021/11/16 07:25:05;;;;;;;47.57;28.27;;;;;;;5.85;79.65;102638.41;5030651;28;20710;-72
2021/11/16 07:27:51;;;;;;;49.33;28.03;;;;;;;5.84;80.42;102645.13;5030794;28;20178;-72
2021/11/16 07:30:24;;;;;;;51.20;28.63;;;;;;;5.86;79.68;102641.06;5030636;28;20197;-72
2021/11/16 07:32:59;;;;;;;49.90;28.67;;;;;;;5.82;79.86;102645.81;5030857;28;20305;-72
2021/11/16 07:35:30;;;;;;;47.70;28.20;;;;;;;5.83;79.94;102637.41;5030751;28;20213;-72
2021/11/16 07:37:59;;;;;;;54.20;29.70;;;;;;;5.84;80.18;102639.19;5030759;28;20186;-72
2021/11/16 07:40:25;;;;;;;53.17;30.77;;;;;;;5.80;80.87;102644.81;5029528;28;20198;-72
2021/11/16 07:43:07;;;;;;;57.00;32.73;;;;;;;5.84;80.86;102649.38;5030854;28;20792;-72
2021/11/16 07:45:44;;;;;;;58.67;32.27;;;;;;;5.84;80.62;102652.78;5030588;28;20179;-72
2021/11/16 07:48:18;;;;;;;56.73;31.53;;;;;;;5.83;81.31;102643.38;5030716;28;20182;-73
2021/11/16 07:50:45;;;;;;;53.03;30.80;;;;;;;5.82;80.99;102643.28;5030668;28;20543;-73
2021/11/16 07:53:26;;;;;;;48.80;28.50;;;;;;;5.83;81.54;102643.38;5030424;28;20253;-71
2021/11/16 07:56:15;;;;;;;52.23;29.30;;;;;;;5.83;81.12;102640.84;5030004;28;20214;-71
2021/11/16 07:58:43;;;;;;;60.17;33.17;;;;;;;5.81;81.54;102638.97;5030379;28;20171;-72
2021/11/16 08:01:18;;;;;;;58.40;33.50;;;;;;;5.84;81.29;102629.03;5029769;28;20679;-73
2021/11/16 08:03:48;;;;;;;58.10;33.07;;;;;;;5.74;81.55;102632.56;5030219;28;20202;-73
2021/11/16 08:06:24;;;;;;;52.27;30.43;;;;;;;5.77;81.27;102629.34;5028288;28;20343;-72
2021/11/16 08:08:55;;;;;;;53.33;31.60;;;;;;;5.82;81.08;102634.00;5029769;28;20834;-71
2021/11/16 08:11:37;;;;;;;55.43;31.47;;;;;;;5.81;80.86;102637.31;5029386;28;20826;-72
2021/11/16 08:14:07;;;;;;;57.90;31.57;;;;;;;5.81;80.99;102632.22;5029459;28;20214;-72
2021/11/16 08:16:58;;;;;;;63.70;32.80;;;;;;;5.86;81.55;102624.91;5029322;28;20309;-72
2021/11/16 08:19:30;;;;;;;58.70;31.87;;;;;;;5.83;81.61;102630.69;5029447;28;20225;-73
2021/11/16 08:21:58;;;;;;;57.83;32.93;;;;;;;5.89;81.55;102632.75;5028148;28;20179;-74
2021/11/16 08:24:27;;;;;;;55.83;32.17;;;;;;;5.90;81.39;102629.44;5029459;28;20194;-72
2021/11/16 08:26:53;;;;;;;56.87;32.03;;;;;;;5.91;81.66;102632.09;5029361;28;20260;-72
2021/11/16 08:29:37;;;;;;;56.90;31.40;;;;;;;5.88;81.84;102629.31;5029460;28;20186;-72
2021/11/16 08:32:10;;;;;;;56.80;30.77;;;;;;;5.87;82.35;102617.41;5029452;28;20182;-72
2021/11/16 08:34:42;;;;;;;62.37;36.40;;;;;;;5.87;82.45;102619.03;5011701;28;20238;-72
2021/11/16 08:37:09;;;;;;;61.90;34.70;;;;;;;5.92;82.49;102617.69;5020985;28;20321;-72
2021/11/16 08:39:49;;;;;;;56.70;34.17;;;;;;;5.87;82.03;102619.03;5016852;28;20190;-72
2021/11/16 08:42:23;;;;;;;60.63;33.80;;;;;;;5.87;82.09;102619.94;5025408;28;20214;-72
2021/11/16 08:44:59;;;;;;;60.30;34.20;;;;;;;5.81;82.79;102614.44;5027453;28;20182;-71
2021/11/16 08:47:32;;;;;;;58.30;32.07;;;;;;;5.86;81.83;102615.66;5028634;28;20189;-71
2021/11/16 08:49:57;;;;;;;59.43;32.83;;;;;;;5.83;82.25;102607.81;5012505;28;20203;-72
2021/11/16 08:52:27;;;;;;;62.20;34.60;;;;;;;5.81;81.86;102614.44;5023482;28;20205;-72
2021/11/16 08:55:13;;;;;;;59.90;34.43;;;;;;;5.81;82.21;102613.56;5023721;28;20198;-72
2021/11/16 08:57:44;;;;;;;62.27;34.90;;;;;;;5.83;82.43;102606.91;5018844;28;20198;-72
2021/11/16 09:00:16;;;;;;;67.00;35.93;;;;;;;5.87;83.32;102608.88;5008872;28;20222;-72
2021/11/16 09:02:42;;;;;;;64.07;33.87;;;;;;;5.86;83.29;102610.56;5009122;28;20218;-72
2021/11/16 09:05:11;;;;;;;63.17;35.17;;;;;;;5.79;83.30;102610.00;5009088;28;20230;-71
2021/11/16 09:07:36;;;;;;;67.57;35.33;;;;;;;5.75;83.01;102606.38;5008999;28;20257;-73
2021/11/16 09:10:08;;;;;;;63.03;33.77;;;;;;;5.82;82.83;102607.69;5027968;28;20186;-72
2021/11/16 09:12:42;;;;;;;58.50;32.87;;;;;;;5.82;83.53;102606.06;5027150;28;20222;-72
2021/11/16 09:15:09;;;;;;;64.87;33.70;;;;;;;5.77;84.07;102603.94;5019374;28;20198;-73
2021/11/16 09:17:36;;;;;;;66.37;34.70;;;;;;;5.75;83.90;102601.28;5015545;28;20241;-72
2021/11/16 09:20:22;;;;;;;61.53;34.17;;;;;;;5.77;82.99;102598.84;5015284;28;20203;-72
2021/11/16 09:22:49;;;;;;;64.17;33.43;;;;;;;5.76;83.60;102592.88;5027597;28;20225;-73
2021/11/16 09:25:31;;;;;;;58.77;33.23;;;;;;;5.76;83.48;102592.88;5020130;28;20194;-72
2021/11/16 09:28:11;;;;;;;64.83;34.30;;;;;;;5.81;83.89;102590.69;5022772;28;20273;-73
2021/11/16 09:30:46;;;;;;;55.93;31.63;;;;;;;5.83;83.11;102596.75;5017593;28;20210;-73
2021/11/16 09:33:17;;;;;;;60.20;32.57;;;;;;;5.78;83.56;102595.53;5015994;28;20225;-72
2021/11/16 09:35:45;;;;;;;56.73;31.10;;;;;;;5.78;84.26;102590.44;5018305;28;20570;-72
2021/11/16 09:38:11;;;;;;;56.40;31.30;;;;;;;5.82;83.81;102589.91;5013946;28;20281;-73
2021/11/16 09:40:36;;;;;;;62.53;33.40;;;;;;;5.74;83.98;102589.38;5017094;28;20266;-72
2021/11/16 09:43:03;;;;;;;59.07;32.47;;;;;;;5.73;83.99;102579.09;5018444;28;20202;-74
2021/11/16 09:45:30;;;;;;;58.83;32.33;;;;;;;5.73;83.12;102584.19;5027037;28;20874;-73
2021/11/16 09:47:55;;;;;;;62.30;30.83;;;;;;;5.68;83.36;102588.97;5028387;28;20195;-72
2021/11/16 09:50:23;;;;;;;60.03;31.83;;;;;;;5.73;83.10;102589.25;5027018;28;20252;-71
2021/11/16 09:52:52;;;;;;;53.90;28.93;;;;;;;5.82;83.14;102579.75;5010567;28;20275;-72
2021/11/16 09:55:22;;;;;;;54.43;28.17;;;;;;;5.89;82.84;102585.31;5025260;28;20756;-72
2021/11/16 09:57:52;;;;;;;51.00;27.67;;;;;;;5.92;83.80;102582.09;5018048;28;20187;-72
2021/11/16 10:00:25;;;;;;;51.57;28.30;;;;;;;5.87;83.14;102581.81;5008790;28;20187;-72
2021/11/16 10:02:52;;;;;;;45.07;25.60;;;;;;;5.85;83.28;102583.34;5028217;28;20270;-73
2021/11/16 10:05:21;;;;;;;51.07;27.30;;;;;;;5.88;83.22;102577.59;5012165;28;20199;-73
2021/11/16 10:07:49;;;;;;;54.27;29.50;;;;;;;5.88;82.65;102581.03;5008644;28;20842;-73
2021/11/16 10:10:15;;;;;;;50.63;28.17;;;;;;;5.84;83.46;102573.97;5007406;28;20210;-74
2021/11/16 10:12:44;;;;;;;54.30;30.13;;;;;;;5.87;83.81;102579.28;5010545;28;20310;-73
2021/11/16 10:15:13;;;;;;;61.47;32.37;;;;;;;5.87;83.89;102565.69;5012070;28;20179;-73
2021/11/16 10:17:39;;;;;;;51.87;29.20;;;;;;;5.90;83.78;102569.28;5011954;28;20708;-73
2021/11/16 10:20:05;;;;;;;50.80;27.47;;;;;;;5.86;83.31;102569.91;5011937;28;20194;-73
2021/11/16 10:22:31;;;;;;;53.27;27.23;;;;;;;5.88;83.93;102559.81;5012044;28;20213;-73
2021/11/16 10:25:14;;;;;;;49.17;26.40;;;;;;;5.88;83.46;102557.25;5011842;28;20183;-73
2021/11/16 10:27:40;;;;;;;49.83;26.90;;;;;;;5.93;84.13;102550.81;5011774;28;20190;-74
2021/11/16 10:30:27;;;;;;;46.23;25.50;;;;;;;5.98;83.20;102545.25;5024471;28;20198;-72
2021/11/16 10:33:19;;;;;;;42.13;24.37;;;;;;;5.99;83.13;102535.97;5031764;28;20213;-73
2021/11/16 10:36:00;;;;;;;50.80;26.50;;;;;;;5.93;83.01;102541.53;5031370;28;20202;-74
2021/11/16 10:38:34;;;;;;;53.57;27.40;;;;;;;5.92;83.73;102519.44;5030253;28;20651;-72
2021/11/16 10:41:05;;;;;;;55.87;30.10;;;;;;;5.81;84.14;102517.00;5031573;28;20193;-71
2021/11/16 10:43:49;;;;;;;57.13;32.20;;;;;;;5.81;83.50;102510.22;5031443;28;20216;-72
2021/11/16 10:46:18;;;;;;;53.30;30.10;;;;;;;5.84;83.79;102507.91;5025862;28;20193;-72
2021/11/16 10:48:47;;;;;;;56.27;30.27;;;;;;;5.90;83.30;102499.81;5031167;28;20222;-71
2021/11/16 10:51:16;;;;;;;53.33;28.80;;;;;;;5.92;83.79;102503.31;5013451;28;20179;-74
2021/11/16 10:53:50;;;;;;;49.40;26.80;;;;;;;5.92;82.79;102499.13;5031036;28;20198;-72
2021/11/16 10:56:24;;;;;;;50.50;27.07;;;;;;;5.96;83.74;102506.16;5021998;28;20655;-73
2021/11/16 10:58:50;;;;;;;50.13;26.57;;;;;;;6.01;83.57;102494.63;5029458;28;20838;-74
2021/11/16 11:01:21;;;;;;;48.67;26.37;;;;;;;6.07;83.89;102497.53;5023772;28;20257;-72
2021/11/16 11:03:51;;;;;;;41.50;24.00;;;;;;;6.03;83.48;102490.50;4993822;28;20636;-73
2021/11/16 11:06:22;;;;;;;45.60;24.33;;;;;;;6.03;83.90;102487.09;5001703;28;20191;-72
2021/11/16 11:08:52;;;;;;;42.57;23.43;;;;;;;6.02;83.49;102487.84;5019834;28;20252;-72
2021/11/16 11:11:38;;;;;;;41.77;22.73;;;;;;;6.03;83.29;102487.09;5020476;28;20191;-72
2021/11/16 11:14:06;;;;;;;45.97;23.47;;;;;;;6.11;83.94;102470.63;5016178;28;20210;-73
2021/11/16 11:16:37;;;;;;;42.50;23.20;;;;;;;6.13;82.92;102474.19;5018004;28;20240;-72
2021/11/16 11:19:07;;;;;;;41.17;21.90;;;;;;;6.18;82.86;102470.25;5021003;28;20190;-73
2021/11/16 11:21:42;;;;;;;38.77;21.90;;;;;;;6.13;83.24;102464.88;5019058;28;20180;-72
2021/11/16 11:24:19;;;;;;;39.47;21.97;;;;;;;6.18;83.45;102462.63;5019798;28;20235;-73
2021/11/16 11:26:48;;;;;;;36.13;21.73;;;;;;;6.24;83.10;102460.47;5026298;28;20643;-73
2021/11/16 11:29:39;;;;;;;39.57;21.97;;;;;;;6.23;82.83;102457.06;5018148;28;20559;-73
2021/11/16 11:32:16;;;;;;;41.37;22.90;;;;;;;6.24;82.22;102455.38;5022422;28;20191;-73
2021/11/16 11:34:49;;;;;;;39.47;20.20;;;;;;;6.26;82.23;102447.06;5012122;28;20226;-74
2021/11/16 11:37:17;;;;;;;35.77;20.63;;;;;;;6.24;82.28;102442.66;5025934;28;20234;-73